Ilchester, Maryland
Current Conditions -  °F | °C
As of 8:54 PM on Thursday 18 Dec 2014 (Local Time) from KBWI Reporting Station
Overcast Overcast  
Wind Chill: 30°   Ceiling: 11000
Heat Index: 34°   Visibility: 10mi
Dew Point: 23°   Wind: 5mph
Humidity: 64%   Direction: 280°W
Pressure: 30.1"   Gusts: NA
Location:  39.2601°N, 76.7979°W
Report Text: KBWI 190154Z 28004KT 10SM BKN110 BKN140 OVC250 01/M05 A3010 RMK AO2 SLP193 T00111050
Loading
Personal Weather Stations






























Interactive Weather Map New forecast layout! Learn more

10-Day Weather Forecast

Advertisements
Track Severe Weather on mobile